Stunt Ranch Reserve, Santa Monica Mtns, California Weather observations

Data are for 10 minute period ending at time listed.
 Day   Time   Solar   Ave.   Ave.  Ave.  Vector  Max.   Baro.   Total    
  of    of     Rad.   Air    Rel.  Wind   Wind   Wind  Press.  Precip.   
Year   Day            Temp.  Hum.  Speed  Dir.   Gust                    
2014   (PST)  Kw/m2    F      %     mph   deg.    mph    mb.     in.     
-------------------------------------------------------------------------
 304    2:10   0.00   53.9    78    1.7    95     2.8   968.2    0.00 
 304    2:20   0.00   54.3    78    1.7   184     3.0   968.2    0.00 
 304    2:30   0.00   54.1    78    2.0   124     3.8   967.8    0.00 
 304    2:40   0.00   54.5    82    1.7   160     2.9   967.8    0.00 
 304    2:50   0.00   55.2    80    2.2   136     3.7   967.5    0.00 
 304    3:00   0.00   55.4    79    0.8   139     2.3   967.5    0.00 
 304    3:10   0.00   55.4    79    1.7   161     2.8   967.5    0.00 
 304    3:20   0.00   55.7    80    0.5   256     1.8   967.5    0.00 
 304    3:30   0.00   55.4    81    0.2   153     0.9   967.2    0.00 
 304    3:40   0.00   55.0    83    0.6   300     1.6   967.5    0.00 
 304    3:50   0.00   53.8    84    1.1   249     2.8   967.5    0.00 
 304    4:00   0.00   53.8    85    1.4   129     2.6   967.5    0.00 
 304    4:10   0.00   54.3    84    1.4   163     2.6   967.5    0.00 
 304    4:20   0.00   54.9    85    0.9   297     2.3   967.5    0.00 
 304    4:30   0.00   54.0    86    1.1   262     2.6   967.5    0.00 
 304    4:40   0.00   53.7    88    1.6   144     2.6   967.5    0.00 
 304    4:50   0.00   54.5    90    1.5   128     2.7   967.5    0.00 
 304    5:00   0.00   54.7    90    0.9   135     2.9   967.8    0.00 
 304    5:10   0.00   54.9    90    0.9   226     2.0   967.8    0.00 
 304    5:20   0.00   54.4    91    1.5   274     2.2   967.8    0.00 
 304    5:30   0.00   53.9    91    1.0   299     2.0   967.8    0.00 
 304    5:40   0.00   53.7    92    2.9   123     4.5   967.8    0.00 
 304    5:50   0.00   54.4    93    2.0   111     3.5   967.8    0.00 
 304    6:00   0.00   54.8    92    2.5   136     3.4   967.5    0.00 
 304    6:10   0.00   55.1    91    2.4   243     3.9   967.8    0.00 
 304    6:20   0.00   54.0    91    2.1   308     3.4   967.8    0.00 
 304    6:30   0.01   53.7    93    2.1    94     2.9   968.2    0.00 
 304    6:40   0.01   53.9    94    1.6   109     2.6   968.2    0.00 
 304    6:50   0.02   54.5    94    1.9   131     2.8   968.2    0.00 
 304    7:00   0.04   55.3    93    1.0   131     1.9   968.2    0.00 
 304    7:10   0.04   55.5    92    0.4   224     1.0   968.5    0.00 
 304    7:20   0.05   56.3    91    0.1   131     0.8   968.5    0.00 
 304    7:30   0.06   57.1    90    0.5   138     1.2   968.5    0.00 
 304    7:40   0.08   58.0    88    1.3   146     2.6   968.5    0.00 
 304    7:50   0.09   58.7    85    1.6   264     3.1   968.8    0.00 
 304    8:00   0.09   58.5    82    1.9   291     3.4   968.8    0.00 
 304    8:10   0.12   59.0    82    0.7   116     2.3   968.8    0.00 
 304    8:20   0.16   59.9    78    2.3   286     6.0   968.8    0.00 
 304    8:30   0.11   60.1    75    2.5   286     5.4   969.2    0.00 
 304    8:40   0.09   59.9    76    0.4   153     2.0   969.2    0.00 
 304    8:50   0.11   60.2    78    1.1    70     2.9   969.2    0.00 
 304    9:00   0.13   60.5    73    1.5   284     3.6   969.2    0.00 
 304    9:10   0.14   61.1    73    0.9   291     2.2   968.8    0.00 
 304    9:20   0.15   61.7    71    1.4   293     3.2   968.8    0.00 
 304    9:30   0.11   62.2    70    2.5   289     5.8   968.8    0.00 
 304    9:40   0.09   62.0    71    1.5   292     3.9   968.8    0.00 
 304    9:50   0.09   61.1    75    0.8   318     2.3   968.8    0.00 
 304   10:00   0.08   60.5    78    0.8     4     2.3   968.8    0.00 
 304   10:10   0.10   60.9    76    1.4   302     4.1   968.5    0.00 
 304   10:20   0.12   62.1    72    1.5   302     3.4   968.5    0.00 
 304   10:30   0.17   63.5    69    1.7   297     4.7   968.2    0.00 
 304   10:40   0.17   64.5    66    2.3   289     6.6   968.2    0.00 
 304   10:50   0.11   64.8    64    1.9   291     5.9   968.2    0.00 
 304   11:00   0.11   64.4    65    2.1   286     5.7   968.2    0.00 
 304   11:10   0.10   64.6    64    1.2   300     4.1   967.8    0.00 
 304   11:20   0.10   64.9    63    0.8   305     2.9   967.8    0.00 
 304   11:30   0.10   65.0    62    0.9   303     2.6   967.5    0.00 
 304   11:40   0.12   64.6    63    1.2   332     3.7   967.5    0.00 
 304   11:50   0.15   65.0    62    2.7   271     8.6   967.2    0.00 
 304   12:00   0.23   66.0    59    0.9   282     3.1   967.2    0.00 
 304   12:10   0.20   67.0    57    2.0   308     4.5   966.8    0.00 
 304   12:20   0.15   66.8    57    1.8   314     4.4   966.5    0.00 
 304   12:30   0.17   66.4    58    2.8   293     9.2   966.5    0.00 
 304   12:40   0.22   66.8    57    1.4   314     3.8   966.1    0.00 
 304   12:50   0.20   67.3    56    1.6   258     4.3   966.1    0.00 
 304   13:00   0.17   65.6    58    2.2   262     6.6   966.1    0.00 
 304   13:10   0.19   65.6    59    1.9   215     6.6   965.8    0.00 
 304   13:20   0.23   65.8    59    0.7   244     2.4   965.8    0.00 
 304   13:30   0.28   67.0    58    1.7   270     5.6   965.8    0.00 
 304   13:40   0.18   67.5    59    1.4   289     7.0   965.5    0.00 
 304   13:50   0.16   67.3    60    1.7   287     7.0   965.5    0.00 
 304   14:00   0.16   66.3    63    2.2   271     6.1   965.5    0.00 
 304   14:10   0.12   65.7    63    2.1   110     6.1   965.5    0.00 
 304   14:20   0.10   64.8    65    2.9   160     7.7   965.5    0.00 
 304   14:30   0.12   64.7    65    1.8   167     4.1   965.5    0.00 
 304   14:40   0.15   64.7    65    3.1   112     6.8   965.5    0.00 
 304   14:50   0.18   64.4    67    4.4   122     8.0   965.1    0.00 
 304   15:00   0.13   64.0    71    6.0   138    11.2   965.1    0.00 
 304   15:10   0.08   63.4    71    6.1   134     9.1   965.1    0.00 
 304   15:20   0.07   63.3    71    4.4   139     8.0   965.1    0.00 
 304   15:30   0.06   63.0    72    2.6   140     6.1   965.1    0.00 
 304   15:40   0.07   63.0    73    4.1   143     6.6   965.1    0.00 
 304   15:50   0.09   62.8    72    5.0   153     8.5   965.1    0.00 
 304   16:00   0.08   62.6    73    5.0   161     9.1   964.8    0.00 
 304   16:10   0.06   62.4    74    3.9   168     7.0   965.1    0.00 
 304   16:20   0.09   62.5    74    2.7   213     6.3   965.1    0.00 
 304   16:30   0.07   62.7    74    1.7   195     4.4   965.1    0.00 
 304   16:40   0.02   62.5    76    1.9   257     5.7   965.1    0.00 
 304   16:50   0.01   61.7    78    2.3   274     7.7   965.1    0.00 
 304   17:00   0.00   61.4    79    2.8   272     8.0   965.1    0.00 
 304   17:10   0.00   61.0    80    2.2   266     5.8   964.8    0.00 
 304   17:20   0.00   60.7    79    2.8   212     9.2   964.8    0.00 
 304   17:30   0.00   60.4    79    2.8   234     6.5   964.8    0.00 
 304   17:40   0.00   60.4    78    1.4   268     4.5   964.8    0.00 
 304   17:50   0.00   60.5    78    1.1   286     3.1   964.4    0.00 
 304   18:00   0.00   60.4    78    1.5    21     3.0   964.4    0.00 
 304   18:10   0.00   60.3    79    1.4    50     2.9   964.4    0.00 
 304   18:20   0.00   60.4    78    0.3    81     3.0   964.4    0.00 
 304   18:30   0.00   60.4    77    2.4   290     5.8   964.4    0.00 
 304   18:40   0.00   60.4    76    2.8   246     9.2   964.4    0.00 
 304   18:50   0.00   60.4    77    2.4   229     8.4   964.4    0.00 
 304   19:00   0.00   60.3    78    3.3   250     9.0   964.4    0.00 
 304   19:10   0.00   60.1    78    2.3   248     5.8   964.4    0.00 
 304   19:20   0.00   60.0    79    4.4   244     9.4   964.4    0.00 
 304   19:30   0.00   59.9    78    5.2   246    13.3   964.4    0.00 
 304   19:40   0.00   59.7    79    5.7   249    14.3   964.4    0.00 
 304   19:50   0.00   59.7    80    4.5   239     8.1   964.4    0.00 
 304   20:00   0.00   59.6    79    4.3   250    10.9   964.8    0.00 
 304   20:10   0.00   59.5    77    4.9   248    11.0   964.8    0.00 
 304   20:20   0.00   59.4    76    5.1   253    13.7   964.8    0.00 
 304   20:30   0.00   59.4    76    2.4   228     8.3   964.4    0.00 
 304   20:40   0.00   59.4    76    1.6   155     5.4   964.4    0.00 
 304   20:50   0.00   59.2    78    6.1   139    12.2   964.1    0.00 
 304   21:00   0.00   58.9    80    6.3   143    12.2   963.8    0.00 
 304   21:10   0.00   59.1    79    4.2   163    11.5   963.8    0.00 
 304   21:20   0.00   59.1    78    2.8   188    15.3   963.8    0.00 
 304   21:30   0.00   59.5    78    3.8   201    11.3   964.1    0.00 
 304   21:40   0.00   59.6    78    4.9   175    15.5   963.8    0.00 
 304   21:50   0.00   59.6    78    4.9   170    14.2   963.8    0.00 
 304   22:00   0.00   59.7    76    4.7   213    14.8   963.8    0.00 
 304   22:10   0.00   59.8    77    2.2   329     7.3   963.8    0.00 
 304   22:20   0.00   59.1    84    6.4   272    19.3   963.8    0.09 
 304   22:30   0.00   57.6    89    6.7   215    19.4   964.1    0.09 
 304   22:40   0.00   56.8    92    2.9   258    10.2   964.1    0.20 
 304   22:50   0.00   56.5    95    1.7   212     5.6   964.1    0.09 
 304   23:00   0.00   56.4    94    2.7   174     6.4   963.8    0.02 
 304   23:10   0.00   56.2    93    1.2   181     6.0   963.4    0.02 
 304   23:20   0.00   56.3    94    0.7    92     3.3   963.4    0.00 
 304   23:30   0.00   56.3    93    2.8   219     6.0   963.4    0.01 
 304   23:40   0.00   56.2    93    2.5   246    10.1   963.4    0.00 
 304   23:50   0.00   56.0    94    1.5   289     6.1   963.8    0.01 
 305    0:00   0.00   55.2    95    2.6   235     7.2   963.8    0.00 
 305    0:10   0.00   54.8    95    1.8   240     3.0   963.8    0.00 
 305    0:20   0.00   54.9    95    0.2   283     1.8   963.8    0.00 
 305    0:30   0.00   54.7    95    1.8   154     3.0   963.8    0.00 
 305    0:40   0.00   54.3    95    2.1   171     3.6   963.8    0.00 
 305    0:50   0.00   53.6    95    2.1   195     3.7   964.1    0.00 
 305    1:00   0.00   53.2    95    1.2   228     2.6   964.1    0.00 
 305    1:10   0.00   52.7    95    1.5   156     3.2   964.1    0.00 
 305    1:20   0.00   52.3    96    1.3   252     3.6   964.4    0.00 
 305    1:30   0.00   52.3    96    2.0   223     4.2   964.4    0.00 
 305    1:40   0.00   52.2    96    1.2   274     2.4   964.4    0.00 
 305    1:50   0.00   51.8    96    1.5   270     3.9   964.4    0.00 
 305    2:00   0.00   52.1    96    1.9   250     6.9   964.4    0.00 

Return to Stunt Ranch Reserve graphs page.


Western Regional Climate Center,wrcc@dri.edu